Latest Weather Observations for Carters Bore

IDQ60801

Issued at 5:51 pm EST Saturday 22 September 2018 (issued every 10 minutes, with the page automatically refreshed every 10 minutes)

About weather observations | Map of weather stations | Latest weather observations for QLD | Other Formats
Station Details ID: 037053 Name: CARTERS BORE Lat: -20.94 Lon: 139.30 Height: 396.0 m
Data from the previous 72 hours. | See also: Recent months at Carters Bore
Date/Time
EST
Temp
°C
App
Temp
°C
Dew
Point
°C
Rel
Hum
%
Delta-T
°C
Wind Press
QNH
hPa
Press
MSL
hPa
Rain since
9am
mm
Dir  Spd
km/h
Gust
km/h
Spd
kts
Gust
kts
22/05:30pm 31.2 25.3 -10.6 6 17.1 SE 15 24 8 13 - - 0.0
22/05:00pm 31.8 26.3 -10.2 6 17.4 SSE 13 20 7 11 - - 0.0
22/04:30pm 31.2 25.6 -10.6 6 17.1 SSE 13 24 7 13 - - 0.0
22/04:00pm 32.1 26.6 -9.9 6 17.5 SSE 13 20 7 11 - - 0.0
22/03:30pm 31.7 26.0 -12.5 5 17.6 SSE 13 24 7 13 - - 0.0
22/03:00pm 32.0 27.2 -10.0 6 17.5 SSE 9 19 5 10 - - 0.0
22/02:30pm 31.3 25.7 -10.5 6 17.2 S 13 28 7 15 - - 0.0
22/02:00pm 31.1 26.7 -10.7 6 17.1 ESE 7 19 4 10 - - 0.0
22/01:30pm 31.1 26.1 -8.7 7 16.8 SE 11 20 6 11 - - 0.0
22/01:00pm 30.7 24.7 -10.9 6 16.9 SSE 15 24 8 13 - - 0.0
22/12:30pm 30.3 24.8 -9.3 7 16.4 ESE 13 22 7 12 - - 0.0
22/12:00pm 30.1 24.6 -9.4 7 16.3 ESE 13 20 7 11 - - 0.0
22/11:30am 29.3 23.4 -10.0 7 16.0 ESE 15 26 8 14 - - 0.0
22/11:00am 28.9 23.0 -10.3 7 15.8 SE 15 24 8 13 - - 0.0
22/10:30am 27.3 21.3 -11.5 7 15.1 SE 15 28 8 15 - - 0.0
22/10:00am 26.5 20.1 -12.1 7 14.7 ESE 17 28 9 15 - - 0.0
22/09:30am 25.8 19.7 -12.6 7 14.4 ESE 15 24 8 13 - - 0.0
22/09:00am 24.3 18.3 -12.0 8 13.5 ESE 15 24 8 13 - - 0.0
22/08:30am 23.0 17.3 -13.0 8 13.0 SE 13 20 7 11 - - 0.0
22/08:00am 21.3 15.6 -12.8 9 12.1 SE 13 20 7 11 - - 0.0
22/07:30am 17.7 14.1 -12.0 12 10.2 S 2 7 1 4 - - 0.0
22/07:00am 15.0 11.0 -12.2 14 9.0 SW 4 6 2 3 - - 0.0
22/06:30am 14.4 11.2 -11.9 15 8.7 CALM 0 0 0 0 - - 0.0
22/06:00am 15.0 11.8 -12.2 14 9.0 CALM 0 0 0 0 - - 0.0
22/05:30am 18.0 13.4 -12.9 11 10.5 SSE 7 11 4 6 - - 0.0
22/05:00am 17.9 13.3 -12.9 11 10.5 SE 7 9 4 5 - - 0.0
22/04:30am 18.9 14.3 -13.3 10 11.0 SSE 7 13 4 7 - - 0.0
22/04:00am 19.6 13.5 -12.8 10 11.3 SE 15 20 8 11 - - 0.0
22/03:30am 19.3 13.6 -13.0 10 11.1 SSE 13 17 7 9 - - 0.0
22/03:00am 19.6 13.9 -12.8 10 11.3 SSE 13 20 7 11 - - 0.0
22/02:30am 17.4 12.9 -11.3 13 10.0 SSE 7 9 4 5 - - 0.0
22/02:00am 17.7 13.4 -11.0 13 10.1 SSW 6 7 3 4 - - 0.0
22/01:30am 17.8 13.4 -10.9 13 10.1 S 7 9 4 5 - - 0.0
22/01:00am 17.8 13.3 -11.9 12 10.3 S 7 9 4 5 - - 0.0
22/12:30am 18.9 14.6 -12.2 11 10.8 S 6 7 3 4 - - 0.0
22/12:00am 20.6 15.3 -12.0 10 11.6 SSE 11 19 6 10 - - 0.0
 
Date/Time
EST
Temp
°C
App
Temp
°C
Dew
Point
°C
Rel
Hum
%
Delta-T
°C
Wind Press
QNH
hPa
Press
MSL
hPa
Rain since
9am
mm
Dir  Spd
km/h
Gust
km/h
Spd
kts
Gust
kts
21/11:30pm 21.5 15.8 -12.7 9 12.2 SSE 13 20 7 11 - - 0.0
21/11:00pm 21.7 16.0 -12.5 9 12.3 SSE 13 19 7 10 - - 0.0
21/10:30pm 22.0 16.3 -12.3 9 12.4 SSE 13 19 7 10 - - 0.0
21/10:00pm 22.8 16.4 -11.7 9 12.7 SSE 17 22 9 12 - - 0.0
21/09:30pm 22.8 17.5 -11.7 9 12.7 SSE 11 17 6 9 - - 0.0
21/09:00pm 23.7 18.4 -12.5 8 13.3 SSE 11 15 6 8 - - 0.0
21/08:30pm 24.3 19.0 -12.0 8 13.5 SSE 11 19 6 10 - - 0.0
21/08:00pm 24.9 19.3 -11.6 8 13.8 SSE 13 19 7 10 - - 0.0
21/07:30pm 25.4 19.7 -12.9 7 14.2 SSE 13 17 7 9 - - 0.0
21/07:00pm 26.3 19.9 -12.2 7 14.6 SSE 17 24 9 13 - - 0.0
21/06:30pm 26.9 20.5 -11.8 7 14.9 S 17 24 9 13 - - 0.0
21/06:00pm 27.5 21.0 -13.2 6 15.4 SSE 17 26 9 14 - - 0.0
21/05:30pm 27.9 21.4 -12.9 6 15.6 SSE 17 28 9 15 - - 0.0
21/05:00pm 28.6 22.5 -12.4 6 15.9 SE 15 22 8 12 - - 0.0
21/04:30pm 29.1 23.4 -12.1 6 16.1 SE 13 19 7 10 - - 0.0
21/04:00pm 29.4 23.2 -14.1 5 16.5 SE 15 24 8 13 - - 0.0
21/03:30pm 29.8 24.2 -11.6 6 16.5 SE 13 20 7 11 - - 0.0
21/03:00pm 28.6 22.9 -12.4 6 15.9 SE 13 20 7 11 - - 0.0
21/02:30pm 28.9 22.5 -12.2 6 16.0 ESE 17 35 9 19 - - 0.0
21/02:00pm 27.1 20.6 -13.5 6 15.2 SE 17 26 9 14 - - 0.0
21/01:30pm 27.6 21.2 -11.3 7 15.2 SE 17 26 9 14 - - 0.0
21/01:00pm 26.6 20.6 -12.0 7 14.7 E 15 28 8 15 - - 0.0
21/12:30pm 26.6 19.6 -12.0 7 14.7 ESE 20 35 11 19 - - 0.0
21/12:00pm 26.1 19.2 -10.7 8 14.3 ESE 20 32 11 17 - - 0.0
21/11:30am 24.8 17.9 -10.2 9 13.6 ESE 20 33 11 18 - - 0.0
21/11:00am 24.2 16.9 -10.6 9 13.3 E 22 37 12 20 - - 0.0
21/10:30am 23.6 16.8 -9.8 10 12.9 ESE 20 33 11 18 - - 0.0
21/10:00am 23.0 15.8 -10.2 10 12.6 ESE 22 33 12 18 - - 0.0
21/09:30am 22.0 15.2 -9.8 11 12.1 ESE 20 32 11 17 - - 0.0
21/09:00am 20.8 14.0 -9.6 12 11.4 ESE 20 30 11 16 - - 0.0
21/08:30am 19.7 12.9 -9.5 13 10.9 ESE 20 30 11 16 - - 0.0
21/08:00am 19.1 11.9 -9.0 14 10.5 ESE 22 39 12 21 - - 0.0
21/07:30am 18.2 12.0 -8.8 15 10.0 SE 17 26 9 14 - - 0.0
21/07:00am 17.4 11.6 -8.6 16 9.6 SE 15 30 8 16 - - 0.0
21/06:30am 17.3 11.6 -7.9 17 9.4 SE 15 28 8 15 - - 0.0
21/06:00am 17.6 11.4 -8.5 16 9.7 SE 17 28 9 15 - - 0.0
21/05:30am 17.8 12.0 -8.3 16 9.7 SE 15 26 8 14 - - 0.0
21/05:00am 18.1 11.5 -8.9 15 10.0 SE 19 30 10 16 - - 0.0
21/04:30am 18.5 10.9 -9.5 14 10.3 SE 24 33 13 18 - - 0.0
21/04:00am 18.7 11.9 -9.3 14 10.3 SE 20 30 11 16 - - 0.0
21/03:30am 18.7 12.0 -10.2 13 10.5 SE 19 26 10 14 - - 0.0
21/03:00am 18.6 12.3 -10.3 13 10.4 SSE 17 22 9 12 - - 0.0
21/02:30am 19.0 13.0 -11.0 12 10.7 SSE 15 22 8 12 - - 0.0
21/02:00am 19.4 13.1 -10.7 12 10.9 SSE 17 24 9 13 - - 0.0
21/01:30am 19.4 13.8 -10.7 12 10.9 SSE 13 19 7 10 - - 0.0
21/01:00am 19.9 14.0 -10.3 12 11.1 SSE 15 20 8 11 - - 0.0
21/12:30am 20.3 13.9 -11.1 11 11.4 SSE 17 24 9 13 - - 0.0
21/12:00am 20.4 14.0 -11.0 11 11.4 SSE 17 24 9 13 - - 0.0
 
Date/Time
EST
Temp
°C
App
Temp
°C
Dew
Point
°C
Rel
Hum
%
Delta-T
°C
Wind Press
QNH
hPa
Press
MSL
hPa
Rain since
9am
mm
Dir  Spd
km/h
Gust
km/h
Spd
kts
Gust
kts
20/11:30pm 20.4 14.9 -9.9 12 11.3 SSE 13 19 7 10 - - 0.0
20/11:00pm 20.9 15.4 -9.5 12 11.5 SSE 13 19 7 10 - - 0.0
20/10:30pm 20.9 16.2 -9.5 12 11.5 SSE 9 11 5 6 - - 0.0
20/10:00pm 21.5 16.3 -10.2 11 11.9 SSE 11 15 6 8 - - 0.0
20/09:30pm 22.1 17.4 -9.7 11 12.1 SSE 9 13 5 7 - - 0.0
20/09:00pm 22.5 17.8 -9.4 11 12.3 SSE 9 15 5 8 - - 0.0
20/08:30pm 23.1 18.3 -10.1 10 12.7 SSE 9 11 5 6 - - 0.0
20/08:00pm 23.7 19.0 -9.7 10 12.9 SSE 9 15 5 8 - - 0.0
20/07:30pm 24.8 18.5 -10.2 9 13.6 SE 17 28 9 15 - - 0.0
20/07:00pm 25.1 20.0 -10.0 9 13.7 SE 11 19 6 10 - - 0.0
20/06:30pm 25.7 20.2 -9.5 9 13.9 SE 13 22 7 12 - - 0.0
20/06:00pm 26.4 20.1 -10.5 8 14.5 SE 17 28 9 15 - - 0.0
20/05:30pm 27.0 20.1 -10.0 8 14.7 SE 20 32 11 17 - - 0.0
20/05:00pm 27.4 19.8 -9.7 8 14.9 SE 24 35 13 19 - - 0.0
20/04:30pm 27.4 20.8 -9.7 8 14.9 SE 19 30 10 16 - - 0.0
20/04:00pm 27.5 20.7 -9.7 8 14.9 SSE 20 33 11 18 - - 0.0
20/03:30pm 27.4 20.6 -9.7 8 14.9 SE 20 33 11 18 - - 0.0
20/03:00pm 27.3 19.7 -9.8 8 14.9 SSE 24 35 13 19 - - 0.0
20/02:30pm 27.4 20.7 -8.2 9 14.7 SE 20 30 11 16 - - 0.0
20/02:00pm 26.6 19.7 -10.3 8 14.5 SE 20 32 11 17 - - 0.0
20/01:30pm 27.2 20.4 -9.9 8 14.8 SE 20 33 11 18 - - 0.0
20/01:00pm 26.1 19.3 -9.2 9 14.1 SE 20 37 11 20 - - 0.0
20/12:30pm 25.3 18.6 -8.5 10 13.6 ESE 20 33 11 18 - - 0.0
20/12:00pm 24.1 17.4 -8.2 11 12.9 SE 20 30 11 16 - - 0.0
20/11:30am 23.4 16.0 -7.6 12 12.4 SE 24 35 13 19 - - 0.0
20/11:00am 23.3 16.6 -7.7 12 12.4 SE 20 32 11 17 - - 0.0
20/10:30am 22.6 15.2 -7.2 13 12.0 SE 24 35 13 19 - - 0.0
20/10:00am 21.1 12.6 -6.5 15 11.1 SSE 30 39 16 21 - - 0.0
20/09:30am 20.1 13.5 -6.5 16 10.5 SSE 20 33 11 18 - - 0.0
20/09:00am 19.0 10.6 -5.8 18 9.9 SE 30 44 16 24 - - -
20/08:30am 17.9 10.7 -5.3 20 9.2 SE 24 35 13 19 - - -
20/08:00am 16.6 9.8 -5.2 22 8.6 SSE 22 43 12 23 - - -
20/07:30am 15.9 9.5 -4.6 24 8.1 SSE 20 33 11 18 - - -
20/07:00am 15.2 9.2 -3.2 28 7.4 SSE 19 32 10 17 - - -
20/06:30am 15.1 9.1 -1.9 31 7.1 SSE 20 37 11 20 - - -
20/06:00am 15.1 9.1 -1.5 32 6.9 SSE 20 35 11 19 - - -
20/05:30am 15.2 9.3 -0.9 33 6.8 SSE 20 32 11 17 - - -
20/05:00am 15.3 9.0 -0.9 33 6.9 SSE 22 32 12 17 - - -
20/04:30am 15.7 9.0 -0.9 32 7.1 SSE 24 33 13 18 - - -
20/04:00am 15.9 9.6 -1.2 31 7.3 SSE 22 35 12 19 - - -
20/03:30am 16.5 11.3 0.2 33 7.2 SSE 17 26 9 14 - - -
20/03:00am 17.1 11.9 0.3 32 7.4 SSE 17 26 9 14 - - 0.0
20/02:30am 17.4 12.3 0.6 32 7.5 SSE 17 24 9 13 - - -
20/02:00am 18.1 12.4 0.7 31 7.8 SSE 20 30 11 16 - - -
20/01:30am 18.5 13.5 1.1 31 7.9 SSE 17 24 9 13 - - -
20/01:00am 19.2 14.2 1.2 30 8.3 SSE 17 24 9 13 - - -
20/12:30am 19.8 14.7 0.8 28 8.7 S 17 28 9 15 - - -
20/12:00am 20.6 14.5 0.4 26 9.2 S 22 39 12 21 - - -
 
Date/Time
EST
Temp
°C
App
Temp
°C
Dew
Point
°C
Rel
Hum
%
Delta-T
°C
Wind Press
QNH
hPa
Press
MSL
hPa
Rain since
9am
mm
Dir  Spd
km/h
Gust
km/h
Spd
kts
Gust
kts
19/11:30pm 21.0 15.7 -0.3 24 9.6 S 17 24 9 13 - - -
19/11:00pm 21.8 16.0 -0.2 23 10.0 S 20 28 11 15 - - -
19/10:30pm 22.3 16.4 -1.1 21 10.5 S 20 32 11 17 - - -
19/10:00pm 23.3 17.5 -1.6 19 11.2 S 19 28 10 15 - - -
19/09:30pm 23.9 18.7 -2.6 17 11.7 S 15 20 8 11 - - -
19/09:00pm 24.6 19.0 -2.9 16 12.2 S 17 24 9 13 - - -
19/08:30pm 25.4 19.3 -4.0 14 12.9 S 19 30 10 16 - - -
19/08:00pm 26.0 19.8 -4.5 13 13.3 S 19 26 10 14 - - -
19/07:30pm 26.6 20.8 -5.1 12 13.7 S 17 26 9 14 - - -
19/07:00pm 27.5 20.8 -4.4 12 14.1 S 22 32 12 17 - - -
19/06:30pm 28.2 21.0 -5.0 11 14.6 S 24 33 13 18 - - -
19/06:00pm 29.3 22.5 -5.4 10 15.3 S 22 33 12 18 - - -

Other Formats:

Comma delimited format used in spreadsheet applications
http://www.bom.gov.au/fwo/IDQ60801/IDQ60801.94347.axf

JavaScript Object Notation format (JSON) in row-major order
http://www.bom.gov.au/fwo/IDQ60801/IDQ60801.94347.json